AirNav   Everest Fuels
 
 713 users online  

CT87 Bootlegger's Seaplane Base
Enfield, Connecticut, USA

GOING TO ENFIELD?


FAA INFORMATION EFFECTIVE 10 SEPTEMBER 2020

Location

FAA Identifier: CT87
Lat/Long: 41-59-54.3460N 072-36-21.3200W
41-59.905767N 072-36.355333W
41.9984294,-72.6059222
(estimated)
Elevation: 35 ft. / 11 m (estimated)
Variation: 15W (1990)
From city: 1 mile W of ENFIELD, CT
Time zone: UTC -4 (UTC -5 during Standard Time)
Zip code: 06082

Seaplane Base Operations

Seaplane Base use: Private use. Permission required prior to landing
Activation date: 02/1992
Control tower: no
ARTCC: BOSTON CENTER
FSS: BRIDGEPORT FLIGHT SERVICE STATION
Attendance: APR-DEC 0700-1800
Wind indicator: yes
Segmented circle: no

Seaplane Base Communications

WX ASOS at BDL (5 nm SW): PHONE 860-386-3480
WX ASOS at BAF (11 nm NW): 127.1 (413-568-2267)
WX ASOS at HFD (16 nm S): PHONE 860-527-5837
WX AWOS-AV at CT71 (19 nm SW): 129.825

Nearby radio navigation aids

VOR radial/distance  VOR name  Freq  Var
BAFr167/11.0BARNES VORTAC113.0014W
HFDr006/21.6HARTFORD VOR/DME114.9013W
CTRr152/23.3CHESTER VOR/DME115.1013W
PUTr288/34.1PUTNAM VOR/DME117.4014W
ORWr328/37.9NORWICH VOR/DME110.0014W

 
NDB name  Hdg/Dist  Freq  Var  ID
GREAT BARRINGTON121/37.239514WGBR --. -... .-.

Seaplane Base Services

Runway Information

Runway 2W/20W

Dimensions: 5000 x 500 ft. / 1524 x 152 m
Surface: water
RUNWAY 2W  RUNWAY 20W
Traffic pattern: leftleft
Obstructions: 40 ft. piers, 500 ft. from runwaynone

Seaplane Base Ownership and Management from official FAA records

Ownership: Privately-owned
Owner: STEPHEN M. COGTELLA
2 SOUTH RIVER ST.
ENFIELD, CT 06082
Phone (860) 745-0387
Manager: STEPHEN M. COGTELLA
2 SOUTH RIVER ST.
ENFIELD, CT 06082
Phone (860) 745-0387

Additional Remarks

FOR CD CTC YANKEE APCH AT 860-386-3597

Instrument Procedures

There are no published instrument procedures at CT87.

Some nearby airports with instrument procedures:

KBDL - Bradley International Airport (5 nm SW)
KBAF - Westfield-Barnes Regional Airport (11 nm NW)
KCEF - Westover Air Reserve Base/Metropolitan Airport (12 nm N)
KHFD - Hartford-Brainard Airport (16 nm S)
7B2 - Northampton Airport (20 nm N)
 
Loc | Ops | Rwys | IFR | FBO | Links
Com | Nav | Svcs | Stats | Notes

Silver City Flying Club
 
Area around CT87 (Bootlegger's Seaplane Base)
 
Road maps at: MapQuest Bing Google
 
Aerial photo
No photo
 
Sectional chart

 
Airport distance calculator
Flying to Bootlegger's Seaplane Base? Find the distance to fly.

From to CT87

Sunrise and sunset
Times for 20-Sep-2020
 Local
(UTC-4)
 Zulu
(UTC)
Morning civil twilight06:1010:10
Sunrise06:3810:38
Sunset18:4922:49
Evening civil twilight19:1723:17

Current date and time
Zulu (UTC)  20-Sep-2020 11:18:43
Local (UTC-4)  20-Sep-2020 07:18:43
 
METAR
KBDL 
5nm SW 
201051Z 01006KT 10SM SCT250 03/M01 A3050 RMK AO2 SLP327 T00331006 $
KBAF 
11nm NW 
201053Z 34004KT 10SM CLR 02/01 A3050 RMK AO2 SLP332 T00220006
KCEF 
13nm N 
201056Z AUTO 00000KT 10SM BKN190 01/M01 A3049 RMK AO2 SLP333 T00111010
KHFD 
16nm S 
201053Z 02005KT 10SM CLR 05/01 A3050 RMK AO2 SLP327 T00500006
TAF
KBDL 
5nm SW 
200841Z 2009/2112 35006KT P6SM SCT120 SCT250 FM201300 01007KT P6SM SCT100 BKN250 FM201800 03008KT P6SM SCT100 BKN250 FM202300 02005KT P6SM SKC FM210300 36003KT P6SM SKC FM211100 36006KT P6SM SKC
KBAF 
11nm NW 
200538Z 2006/2106 VRB03KT P6SM SCT120 BKN250 FM201400 01009KT P6SM SCT120 BKN250 FM202200 01005KT P6SM SKC
KCEF 
13nm N 
192345Z 1923/2103 01009KT 9999 SKC 510102 QNH3033INS BECMG 2012/2013 02010G15KT 9999 SCT160 QNH3052INS BECMG 2021/2022 01009KT 9999 SKC QNH3053INS TX17/2020Z TNM02/2010Z LAST NO AMDS AFT 2003 NEXT 2013
NOTAMs
Click for the latest NOTAMs
NOTAMs are issued by the DoD/FAA and will open in a separate window not controlled by AirNav.

 

 
 

Would you like to see your business listed on this page?

 If your business provides an interesting product or service to pilots, flight crews, aircraft, or users of the Bootlegger's Seaplane Base, you should consider listing it here.  To start the listing process, click on the button below
 
Add a business
 

Other Pages about Bootlegger's Seaplane Base

Update a link
 
Copyright © AirNav, LLC. All rights reserved. Privacy Policy  Contact